sensor_id;sensor_type;location;lat;lon;timestamp;pressure;altitude;pressure_sealevel;temperature;humidity
21960;BME280;11144;43.030;25.108;2023-12-14T00:01:03;98368.81;;;1.62;83.28
21960;BME280;11144;43.030;25.108;2023-12-14T00:02:42;98371.34;;;1.54;83.33
21960;BME280;11144;43.030;25.108;2023-12-14T00:04:14;98368.59;;;1.55;83.74
21960;BME280;11144;43.030;25.108;2023-12-14T00:05:48;98353.19;;;1.45;83.63
21960;BME280;11144;43.030;25.108;2023-12-14T00:07:20;98373.47;;;1.58;83.97
21960;BME280;11144;43.030;25.108;2023-12-14T00:08:53;98368.69;;;1.63;83.79
21960;BME280;11144;43.030;25.108;2023-12-14T00:10:26;98371.78;;;1.67;83.84
21960;BME280;11144;43.030;25.108;2023-12-14T00:12:00;98376.13;;;1.66;83.66
21960;BME280;11144;43.030;25.108;2023-12-14T00:13:32;98363.91;;;1.68;83.54
21960;BME280;11144;43.030;25.108;2023-12-14T00:15:08;98382.66;;;1.70;83.56
21960;BME280;11144;43.030;25.108;2023-12-14T00:16:40;98379.91;;;1.72;83.52
21960;BME280;11144;43.030;25.108;2023-12-14T00:18:14;98378.13;;;1.72;83.41
21960;BME280;11144;43.030;25.108;2023-12-14T00:19:46;98376.34;;;1.73;83.38
21960;BME280;11144;43.030;25.108;2023-12-14T00:21:20;98376.34;;;1.73;83.52
21960;BME280;11144;43.030;25.108;2023-12-14T00:22:52;98376.50;;;1.71;83.50
21960;BME280;11144;43.030;25.108;2023-12-14T00:24:25;98378.38;;;1.61;83.41
21960;BME280;11144;43.030;25.108;2023-12-14T00:25:57;98392.88;;;1.62;83.57
21960;BME280;11144;43.030;25.108;2023-12-14T00:27:31;98383.09;;;1.66;83.80
21960;BME280;11144;43.030;25.108;2023-12-14T00:29:03;98374.81;;;1.62;83.56
21960;BME280;11144;43.030;25.108;2023-12-14T00:30:38;98393.09;;;1.69;83.81
21960;BME280;11144;43.030;25.108;2023-12-14T00:32:10;98400.84;;;1.69;83.70
21960;BME280;11144;43.030;25.108;2023-12-14T00:33:43;98391.84;;;1.73;83.67
21960;BME280;11144;43.030;25.108;2023-12-14T00:35:17;98389.25;;;1.73;83.62
21960;BME280;11144;43.030;25.108;2023-12-14T00:36:50;98388.16;;;1.75;83.72
21960;BME280;11144;43.030;25.108;2023-12-14T00:38:22;98389.78;;;1.76;83.86
21960;BME280;11144;43.030;25.108;2023-12-14T00:39:55;98389.13;;;1.74;83.83
21960;BME280;11144;43.030;25.108;2023-12-14T00:41:28;98376.22;;;1.74;83.58
21960;BME280;11144;43.030;25.108;2023-12-14T00:43:01;98381.72;;;1.79;83.62
21960;BME280;11144;43.030;25.108;2023-12-14T00:44:34;98378.47;;;1.77;83.39
21960;BME280;11144;43.030;25.108;2023-12-14T00:46:08;98379.31;;;1.78;83.34
21960;BME280;11144;43.030;25.108;2023-12-14T00:47:43;98357.59;;;1.71;83.21
21960;BME280;11144;43.030;25.108;2023-12-14T00:49:15;98364.19;;;1.65;82.95
21960;BME280;11144;43.030;25.108;2023-12-14T00:50:50;98370.28;;;1.64;83.76
21960;BME280;11144;43.030;25.108;2023-12-14T00:52:22;98354.13;;;1.62;83.74
21960;BME280;11144;43.030;25.108;2023-12-14T00:53:55;98359.91;;;1.56;83.58
21960;BME280;11144;43.030;25.108;2023-12-14T00:55:27;98361.81;;;1.54;83.84
21960;BME280;11144;43.030;25.108;2023-12-14T00:57:01;98368.25;;;1.50;83.63
21960;BME280;11144;43.030;25.108;2023-12-14T00:58:33;98365.66;;;1.50;83.82
21960;BME280;11144;43.030;25.108;2023-12-14T01:00:07;98370.53;;;1.53;83.94
21960;BME280;11144;43.030;25.108;2023-12-14T01:01:42;98369.28;;;1.57;83.93
21960;BME280;11144;43.030;25.108;2023-12-14T01:03:16;98359.41;;;1.53;83.68
21960;BME280;11144;43.030;25.108;2023-12-14T01:04:48;98369.19;;;1.49;83.62
21960;BME280;11144;43.030;25.108;2023-12-14T01:06:21;98396.78;;;1.48;83.88
21960;BME280;11144;43.030;25.108;2023-12-14T01:07:54;98370.84;;;1.50;84.00
21960;BME280;11144;43.030;25.108;2023-12-14T01:09:27;98345.56;;;1.44;84.06
21960;BME280;11144;43.030;25.108;2023-12-14T01:10:59;98355.41;;;1.40;84.00
21960;BME280;11144;43.030;25.108;2023-12-14T01:12:33;98353.53;;;1.33;83.88
21960;BME280;11144;43.030;25.108;2023-12-14T01:14:05;98391.72;;;1.39;83.69
21960;BME280;11144;43.030;25.108;2023-12-14T01:15:39;98373.31;;;1.42;83.99
21960;BME280;11144;43.030;25.108;2023-12-14T01:17:12;98347.66;;;1.40;83.93
21960;BME280;11144;43.030;25.108;2023-12-14T01:18:46;98341.00;;;1.38;83.80
21960;BME280;11144;43.030;25.108;2023-12-14T01:20:19;98339.63;;;1.43;83.78
21960;BME280;11144;43.030;25.108;2023-12-14T01:21:51;98347.50;;;1.42;83.69
21960;BME280;11144;43.030;25.108;2023-12-14T01:23:25;98357.97;;;1.40;83.73
21960;BME280;11144;43.030;25.108;2023-12-14T01:24:57;98353.63;;;1.41;83.93
21960;BME280;11144;43.030;25.108;2023-12-14T01:26:31;98352.97;;;1.39;83.93
21960;BME280;11144;43.030;25.108;2023-12-14T01:28:03;98351.88;;;1.41;84.14
21960;BME280;11144;43.030;25.108;2023-12-14T01:29:36;98349.13;;;1.43;84.22
21960;BME280;11144;43.030;25.108;2023-12-14T01:31:09;98358.59;;;1.52;84.33
21960;BME280;11144;43.030;25.108;2023-12-14T01:32:44;98361.53;;;1.57;84.26
21960;BME280;11144;43.030;25.108;2023-12-14T01:34:16;98370.91;;;1.58;84.05
21960;BME280;11144;43.030;25.108;2023-12-14T01:35:50;98370.91;;;1.58;84.24
21960;BME280;11144;43.030;25.108;2023-12-14T01:37:22;98365.56;;;1.60;84.00
21960;BME280;11144;43.030;25.108;2023-12-14T01:38:55;98364.63;;;1.61;83.70
21960;BME280;11144;43.030;25.108;2023-12-14T01:40:27;98376.44;;;1.63;83.91
21960;BME280;11144;43.030;25.108;2023-12-14T01:42:01;98364.47;;;1.62;83.91
21960;BME280;11144;43.030;25.108;2023-12-14T01:43:33;98358.19;;;1.65;84.05
21960;BME280;11144;43.030;25.108;2023-12-14T01:45:07;98354.13;;;1.62;83.94
21960;BME280;11144;43.030;25.108;2023-12-14T01:46:39;98349.28;;;1.59;83.73
21960;BME280;11144;43.030;25.108;2023-12-14T01:48:14;98336.00;;;1.54;83.69
21960;BME280;11144;43.030;25.108;2023-12-14T01:49:46;98337.91;;;1.52;83.55
21960;BME280;11144;43.030;25.108;2023-12-14T01:51:20;98337.69;;;1.45;83.51
21960;BME280;11144;43.030;25.108;2023-12-14T01:52:52;98334.53;;;1.34;83.71
21960;BME280;11144;43.030;25.108;2023-12-14T01:54:25;98329.78;;;1.29;84.07
21960;BME280;11144;43.030;25.108;2023-12-14T01:55:58;98346.34;;;1.36;84.33
21960;BME280;11144;43.030;25.108;2023-12-14T01:57:31;98343.59;;;1.38;84.13
21960;BME280;11144;43.030;25.108;2023-12-14T01:59:03;98337.47;;;1.39;83.76
21960;BME280;11144;43.030;25.108;2023-12-14T02:00:39;98335.84;;;1.38;84.31
21960;BME280;11144;43.030;25.108;2023-12-14T02:02:13;98357.31;;;1.38;84.11
21960;BME280;11144;43.030;25.108;2023-12-14T02:03:50;98335.56;;;1.41;83.96
21960;BME280;11144;43.030;25.108;2023-12-14T02:05:23;98313.81;;;1.26;83.90
21960;BME280;11144;43.030;25.108;2023-12-14T02:06:56;98356.50;;;1.38;84.28
21960;BME280;11144;43.030;25.108;2023-12-14T02:08:28;98361.66;;;1.38;84.46
21960;BME280;11144;43.030;25.108;2023-12-14T02:10:02;98329.72;;;1.39;84.38
21960;BME280;11144;43.030;25.108;2023-12-14T02:11:35;98340.19;;;1.37;84.14
21960;BME280;11144;43.030;25.108;2023-12-14T02:13:08;98345.44;;;1.28;84.26
21960;BME280;11144;43.030;25.108;2023-12-14T02:14:42;98351.28;;;1.30;84.40
21960;BME280;11144;43.030;25.108;2023-12-14T02:16:14;98331.28;;;1.32;84.08
21960;BME280;11144;43.030;25.108;2023-12-14T02:17:48;98329.94;;;1.28;84.17
21960;BME280;11144;43.030;25.108;2023-12-14T02:19:21;98342.09;;;1.18;84.32
21960;BME280;11144;43.030;25.108;2023-12-14T02:20:55;98356.88;;;1.25;84.52
21960;BME280;11144;43.030;25.108;2023-12-14T02:22:27;98334.91;;;1.21;84.05
21960;BME280;11144;43.030;25.108;2023-12-14T02:24:02;98327.94;;;1.22;84.21
21960;BME280;11144;43.030;25.108;2023-12-14T02:25:34;98347.72;;;1.31;84.46
21960;BME280;11144;43.030;25.108;2023-12-14T02:27:08;98333.56;;;1.35;84.35
21960;BME280;11144;43.030;25.108;2023-12-14T02:28:40;98325.97;;;1.33;84.38
21960;BME280;11144;43.030;25.108;2023-12-14T02:30:14;98329.41;;;1.42;84.34
21960;BME280;11144;43.030;25.108;2023-12-14T02:31:47;98313.63;;;1.45;84.17
21960;BME280;11144;43.030;25.108;2023-12-14T02:33:20;98331.72;;;1.45;84.17
21960;BME280;11144;43.030;25.108;2023-12-14T02:34:52;98324.91;;;1.44;84.30
21960;BME280;11144;43.030;25.108;2023-12-14T02:36:26;98319.31;;;1.48;84.19
21960;BME280;11144;43.030;25.108;2023-12-14T02:37:58;98310.47;;;1.51;84.21
21960;BME280;11144;43.030;25.108;2023-12-14T02:39:33;98306.28;;;1.50;84.28
21960;BME280;11144;43.030;25.108;2023-12-14T02:41:05;98328.84;;;1.48;84.24
21960;BME280;11144;43.030;25.108;2023-12-14T02:42:38;98333.66;;;1.43;84.48
21960;BME280;11144;43.030;25.108;2023-12-14T02:44:11;98315.78;;;1.49;84.21
21960;BME280;11144;43.030;25.108;2023-12-14T02:45:44;98301.34;;;1.39;84.01
21960;BME280;11144;43.030;25.108;2023-12-14T02:47:16;98314.25;;;1.39;84.18
21960;BME280;11144;43.030;25.108;2023-12-14T02:48:50;98327.88;;;1.49;84.37
21960;BME280;11144;43.030;25.108;2023-12-14T02:50:22;98316.44;;;1.52;84.13
21960;BME280;11144;43.030;25.108;2023-12-14T02:51:55;98313.84;;;1.52;84.13
21960;BME280;11144;43.030;25.108;2023-12-14T02:53:28;98296.84;;;1.41;83.92
21960;BME280;11144;43.030;25.108;2023-12-14T02:55:03;98304.47;;;1.50;83.95
21960;BME280;11144;43.030;25.108;2023-12-14T02:56:35;98304.34;;;1.52;84.08
21960;BME280;11144;43.030;25.108;2023-12-14T02:58:08;98285.22;;;1.45;83.98
21960;BME280;11144;43.030;25.108;2023-12-14T02:59:41;98282.50;;;1.46;83.96
21960;BME280;11144;43.030;25.108;2023-12-14T03:01:14;98288.75;;;1.44;83.61
21960;BME280;11144;43.030;25.108;2023-12-14T03:02:47;98291.22;;;1.45;83.76
21960;BME280;11144;43.030;25.108;2023-12-14T03:04:20;98281.63;;;1.38;83.83
21960;BME280;11144;43.030;25.108;2023-12-14T03:06:13;98288.25;;;1.40;84.16
21960;BME280;11144;43.030;25.108;2023-12-14T03:07:46;98281.78;;;1.36;83.99
21960;BME280;11144;43.030;25.108;2023-12-14T03:09:39;98282.38;;;1.30;84.42
21960;BME280;11144;43.030;25.108;2023-12-14T03:11:22;98275.13;;;1.34;84.42
21960;BME280;11144;43.030;25.108;2023-12-14T03:12:56;98279.94;;;1.29;84.21
21960;BME280;11144;43.030;25.108;2023-12-14T03:14:32;98279.94;;;1.29;84.31
21960;BME280;11144;43.030;25.108;2023-12-14T03:16:06;98283.81;;;1.33;84.31
21960;BME280;11144;43.030;25.108;2023-12-14T03:17:39;98279.03;;;1.38;84.21
21960;BME280;11144;43.030;25.108;2023-12-14T03:19:12;98265.25;;;1.29;84.24
21960;BME280;11144;43.030;25.108;2023-12-14T03:21:04;98300.56;;;1.46;83.93
21960;BME280;11144;43.030;25.108;2023-12-14T03:22:40;98297.19;;;1.46;83.89
21960;BME280;11144;43.030;25.108;2023-12-14T03:24:12;98299.09;;;1.44;83.93
21960;BME280;11144;43.030;25.108;2023-12-14T03:25:46;98313.69;;;1.53;83.98
21960;BME280;11144;43.030;25.108;2023-12-14T03:27:21;98311.78;;;1.55;84.00
21960;BME280;11144;43.030;25.108;2023-12-14T03:28:55;98322.44;;;1.52;83.76
21960;BME280;11144;43.030;25.108;2023-12-14T03:30:28;98309.97;;;1.47;83.79
21960;BME280;11144;43.030;25.108;2023-12-14T03:32:01;98316.22;;;1.45;83.50
21960;BME280;11144;43.030;25.108;2023-12-14T03:33:34;98309.44;;;1.44;83.85
21960;BME280;11144;43.030;25.108;2023-12-14T03:35:07;98306.34;;;1.40;83.84
21960;BME280;11144;43.030;25.108;2023-12-14T03:36:40;98303.59;;;1.42;84.10
21960;BME280;11144;43.030;25.108;2023-12-14T03:38:13;98297.50;;;1.43;83.94
21960;BME280;11144;43.030;25.108;2023-12-14T03:39:47;98285.84;;;1.39;83.94
21960;BME280;11144;43.030;25.108;2023-12-14T03:41:19;98302.94;;;1.40;83.76
21960;BME280;11144;43.030;25.108;2023-12-14T03:42:54;98313.44;;;1.38;83.94
21960;BME280;11144;43.030;25.108;2023-12-14T03:44:26;98318.44;;;1.40;84.07
21960;BME280;11144;43.030;25.108;2023-12-14T03:45:59;98294.69;;;1.36;84.02
21960;BME280;11144;43.030;25.108;2023-12-14T03:47:32;98297.06;;;1.30;84.45
21960;BME280;11144;43.030;25.108;2023-12-14T03:49:05;98307.88;;;1.33;84.30
21960;BME280;11144;43.030;25.108;2023-12-14T03:50:38;98301.91;;;1.33;84.58
21960;BME280;11144;43.030;25.108;2023-12-14T03:52:11;98314.75;;;1.42;84.55
21960;BME280;11144;43.030;25.108;2023-12-14T03:53:43;98300.88;;;1.43;84.54
21960;BME280;11144;43.030;25.108;2023-12-14T03:55:17;98295.41;;;1.46;84.24
21960;BME280;11144;43.030;25.108;2023-12-14T03:56:49;98291.34;;;1.44;83.82
21960;BME280;11144;43.030;25.108;2023-12-14T03:58:24;98294.25;;;1.41;84.44
21960;BME280;11144;43.030;25.108;2023-12-14T03:59:56;98287.00;;;1.44;84.53
21960;BME280;11144;43.030;25.108;2023-12-14T04:01:49;98280.44;;;1.50;84.14
21960;BME280;11144;43.030;25.108;2023-12-14T04:03:23;98292.53;;;1.49;84.32
21960;BME280;11144;43.030;25.108;2023-12-14T04:04:55;98286.41;;;1.50;84.11
21960;BME280;11144;43.030;25.108;2023-12-14T04:06:29;98284.78;;;1.49;83.95
21960;BME280;11144;43.030;25.108;2023-12-14T04:08:03;98288.47;;;1.47;83.90
21960;BME280;11144;43.030;25.108;2023-12-14T04:09:35;98289.91;;;1.41;84.07
21960;BME280;11144;43.030;25.108;2023-12-14T04:11:08;98291.78;;;1.39;84.20
21960;BME280;11144;43.030;25.108;2023-12-14T04:12:41;98290.41;;;1.45;84.11
21960;BME280;11144;43.030;25.108;2023-12-14T04:14:16;98302.38;;;1.46;84.00
21960;BME280;11144;43.030;25.108;2023-12-14T04:15:48;98294.91;;;1.43;83.91
21960;BME280;11144;43.030;25.108;2023-12-14T04:17:21;98271.91;;;1.32;83.84
21960;BME280;11144;43.030;25.108;2023-12-14T04:18:54;98291.22;;;1.45;84.07
21960;BME280;11144;43.030;25.108;2023-12-14T04:20:28;98300.44;;;1.48;84.31
21960;BME280;11144;43.030;25.108;2023-12-14T04:22:00;98301.38;;;1.47;84.18
21960;BME280;11144;43.030;25.108;2023-12-14T04:23:33;98298.44;;;1.42;84.09
21960;BME280;11144;43.030;25.108;2023-12-14T04:25:06;98298.81;;;1.47;83.79
21960;BME280;11144;43.030;25.108;2023-12-14T04:26:40;98299.78;;;1.46;83.98
21960;BME280;11144;43.030;25.108;2023-12-14T04:28:12;98296.72;;;1.50;84.00
21960;BME280;11144;43.030;25.108;2023-12-14T04:29:46;98300.13;;;1.51;83.66
21960;BME280;11144;43.030;25.108;2023-12-14T04:31:19;98306.94;;;1.52;84.12
21960;BME280;11144;43.030;25.108;2023-12-14T04:32:52;98301.59;;;1.54;84.16
21960;BME280;11144;43.030;25.108;2023-12-14T04:34:25;98303.91;;;1.57;84.09
21960;BME280;11144;43.030;25.108;2023-12-14T04:35:58;98293.56;;;1.57;83.96
21960;BME280;11144;43.030;25.108;2023-12-14T04:37:32;98304.72;;;1.57;83.94
21960;BME280;11144;43.030;25.108;2023-12-14T04:39:06;98308.09;;;1.58;83.85
21960;BME280;11144;43.030;25.108;2023-12-14T04:40:39;98308.25;;;1.56;84.07
21960;BME280;11144;43.030;25.108;2023-12-14T04:42:14;98306.09;;;1.52;83.98
21960;BME280;11144;43.030;25.108;2023-12-14T04:43:47;98311.44;;;1.50;83.87
21960;BME280;11144;43.030;25.108;2023-12-14T04:45:21;98288.47;;;1.47;83.95
21960;BME280;11144;43.030;25.108;2023-12-14T04:46:53;98304.03;;;1.55;83.82
21960;BME280;11144;43.030;25.108;2023-12-14T04:48:27;98286.94;;;1.54;83.89
21960;BME280;11144;43.030;25.108;2023-12-14T04:49:59;98281.38;;;1.49;83.87
21960;BME280;11144;43.030;25.108;2023-12-14T04:51:33;98296.38;;;1.45;84.03
21960;BME280;11144;43.030;25.108;2023-12-14T04:53:06;98297.78;;;1.40;84.13
21960;BME280;11144;43.030;25.108;2023-12-14T04:54:38;98297.78;;;1.40;84.13
21960;BME280;11144;43.030;25.108;2023-12-14T04:56:14;98292.47;;;1.41;84.24
21960;BME280;11144;43.030;25.108;2023-12-14T04:57:46;98290.69;;;1.42;84.22
21960;BME280;11144;43.030;25.108;2023-12-14T04:59:20;98299.41;;;1.41;83.90
21960;BME280;11144;43.030;25.108;2023-12-14T05:00:54;98303.59;;;1.42;84.14
21960;BME280;11144;43.030;25.108;2023-12-14T05:02:28;98302.66;;;1.43;84.38
21960;BME280;11144;43.030;25.108;2023-12-14T05:04:00;98305.91;;;1.45;84.36
21960;BME280;11144;43.030;25.108;2023-12-14T05:05:34;98313.81;;;1.43;84.14
21960;BME280;11144;43.030;25.108;2023-12-14T05:07:07;98298.16;;;1.45;84.15
21960;BME280;11144;43.030;25.108;2023-12-14T05:08:40;98317.53;;;1.49;84.16
21960;BME280;11144;43.030;25.108;2023-12-14T05:10:12;98302.06;;;1.49;84.06
21960;BME280;11144;43.030;25.108;2023-12-14T05:11:46;98303.69;;;1.50;83.86
21960;BME280;11144;43.030;25.108;2023-12-14T05:13:18;98299.47;;;1.49;84.07
21960;BME280;11144;43.030;25.108;2023-12-14T05:14:52;98292.81;;;1.46;83.96
21960;BME280;11144;43.030;25.108;2023-12-14T05:16:25;98313.94;;;1.42;84.02
21960;BME280;11144;43.030;25.108;2023-12-14T05:17:59;98304.25;;;1.44;84.12
21960;BME280;11144;43.030;25.108;2023-12-14T05:19:32;98308.63;;;1.43;84.17
21960;BME280;11144;43.030;25.108;2023-12-14T05:21:08;98312.31;;;1.41;84.08
21960;BME280;11144;43.030;25.108;2023-12-14T05:22:41;98300.50;;;1.38;83.98
21960;BME280;11144;43.030;25.108;2023-12-14T05:24:14;98314.38;;;1.37;83.90
21960;BME280;11144;43.030;25.108;2023-12-14T05:25:47;98306.78;;;1.36;84.24
21960;BME280;11144;43.030;25.108;2023-12-14T05:27:19;98310.03;;;1.38;84.01
21960;BME280;11144;43.030;25.108;2023-12-14T05:28:53;98315.50;;;1.35;84.43
21960;BME280;11144;43.030;25.108;2023-12-14T05:30:26;98319.03;;;1.34;84.47
21960;BME280;11144;43.030;25.108;2023-12-14T05:32:00;98312.38;;;1.31;84.17
21960;BME280;11144;43.030;25.108;2023-12-14T05:33:36;98301.41;;;1.29;84.43
21960;BME280;11144;43.030;25.108;2023-12-14T05:35:10;98300.56;;;1.29;84.57
21960;BME280;11144;43.030;25.108;2023-12-14T05:36:44;98303.16;;;1.29;84.02
21960;BME280;11144;43.030;25.108;2023-12-14T05:38:16;98311.56;;;1.31;84.32
21960;BME280;11144;43.030;25.108;2023-12-14T05:39:49;98323.38;;;1.33;84.30
21960;BME280;11144;43.030;25.108;2023-12-14T05:41:23;98317.41;;;1.33;84.07
21960;BME280;11144;43.030;25.108;2023-12-14T05:43:15;98315.78;;;1.32;84.39
21960;BME280;11144;43.030;25.108;2023-12-14T05:44:49;98300.56;;;1.29;84.22
21960;BME280;11144;43.030;25.108;2023-12-14T05:46:21;98304.81;;;1.30;84.28
21960;BME280;11144;43.030;25.108;2023-12-14T05:47:57;98312.53;;;1.30;84.45
21960;BME280;11144;43.030;25.108;2023-12-14T05:49:29;98307.38;;;1.30;84.79
21960;BME280;11144;43.030;25.108;2023-12-14T05:51:03;98302.06;;;1.31;84.69
21960;BME280;11144;43.030;25.108;2023-12-14T05:52:35;98310.69;;;1.40;84.62
21960;BME280;11144;43.030;25.108;2023-12-14T05:54:09;98307.97;;;1.41;84.45
21960;BME280;11144;43.030;25.108;2023-12-14T05:55:42;98299.69;;;1.38;84.08
21960;BME280;11144;43.030;25.108;2023-12-14T05:57:16;98289.97;;;1.32;84.70
21960;BME280;11144;43.030;25.108;2023-12-14T05:58:48;98307.00;;;1.42;84.39
21960;BME280;11144;43.030;25.108;2023-12-14T06:00:22;98312.97;;;1.43;84.37
21960;BME280;11144;43.030;25.108;2023-12-14T06:01:56;98294.84;;;1.35;84.44
21960;BME280;11144;43.030;25.108;2023-12-14T06:03:31;98313.25;;;1.40;84.12
21960;BME280;11144;43.030;25.108;2023-12-14T06:05:05;98314.59;;;1.44;84.68
21960;BME280;11144;43.030;25.108;2023-12-14T06:06:39;98311.06;;;1.45;84.22
21960;BME280;11144;43.030;25.108;2023-12-14T06:08:12;98313.34;;;1.48;84.10
21960;BME280;11144;43.030;25.108;2023-12-14T06:09:45;98319.97;;;1.50;84.03
21960;BME280;11144;43.030;25.108;2023-12-14T06:11:17;98310.47;;;1.51;84.19
21960;BME280;11144;43.030;25.108;2023-12-14T06:12:52;98313.19;;;1.49;84.18
21960;BME280;11144;43.030;25.108;2023-12-14T06:14:24;98319.84;;;1.52;83.98
21960;BME280;11144;43.030;25.108;2023-12-14T06:15:57;98319.19;;;1.50;83.76
21960;BME280;11144;43.030;25.108;2023-12-14T06:17:31;98327.59;;;1.52;84.14
21960;BME280;11144;43.030;25.108;2023-12-14T06:19:07;98324.34;;;1.50;83.72
21960;BME280;11144;43.030;25.108;2023-12-14T06:20:40;98316.22;;;1.45;83.88
21960;BME280;11144;43.030;25.108;2023-12-14T06:22:13;98345.00;;;1.50;84.10
21960;BME280;11144;43.030;25.108;2023-12-14T06:23:46;98331.28;;;1.49;84.12
21960;BME280;11144;43.030;25.108;2023-12-14T06:25:22;98342.28;;;1.52;84.11
21960;BME280;11144;43.030;25.108;2023-12-14T06:26:56;98337.31;;;1.58;84.01
21960;BME280;11144;43.030;25.108;2023-12-14T06:28:28;98342.47;;;1.58;84.46
21960;BME280;11144;43.030;25.108;2023-12-14T06:30:02;98356.72;;;1.62;84.24
21960;BME280;11144;43.030;25.108;2023-12-14T06:31:35;98359.03;;;1.65;83.92
21960;BME280;11144;43.030;25.108;2023-12-14T06:33:08;98347.13;;;1.72;83.94
21960;BME280;11144;43.030;25.108;2023-12-14T06:34:42;98349.41;;;1.75;83.70
21960;BME280;11144;43.030;25.108;2023-12-14T06:36:16;98361.88;;;1.80;83.95
21960;BME280;11144;43.030;25.108;2023-12-14T06:37:49;98367.56;;;1.83;83.68
21960;BME280;11144;43.030;25.108;2023-12-14T06:39:22;98355.59;;;1.82;83.57
21960;BME280;11144;43.030;25.108;2023-12-14T06:40:55;98364.00;;;1.84;83.88
21960;BME280;11144;43.030;25.108;2023-12-14T06:42:28;98348.50;;;1.84;83.70
21960;BME280;11144;43.030;25.108;2023-12-14T06:44:01;98354.22;;;1.88;83.51
21960;BME280;11144;43.030;25.108;2023-12-14T06:45:36;98357.56;;;1.88;83.49
21960;BME280;11144;43.030;25.108;2023-12-14T06:47:08;98347.84;;;1.82;83.55
21960;BME280;11144;43.030;25.108;2023-12-14T06:48:42;98354.66;;;1.83;83.60
21960;BME280;11144;43.030;25.108;2023-12-14T06:50:16;98341.53;;;1.77;83.46
21960;BME280;11144;43.030;25.108;2023-12-14T06:51:49;98354.50;;;1.85;84.01
21960;BME280;11144;43.030;25.108;2023-12-14T06:53:22;98363.13;;;1.93;83.62
21960;BME280;11144;43.030;25.108;2023-12-14T06:54:55;98360.91;;;1.98;83.66
21960;BME280;11144;43.030;25.108;2023-12-14T06:56:27;98360.00;;;2.07;83.87
21960;BME280;11144;43.030;25.108;2023-12-14T06:58:01;98350.25;;;2.01;83.64
21960;BME280;11144;43.030;25.108;2023-12-14T06:59:33;98362.63;;;2.15;83.78
21960;BME280;11144;43.030;25.108;2023-12-14T07:01:07;98364.09;;;2.18;83.60
21960;BME280;11144;43.030;25.108;2023-12-14T07:02:39;98380.28;;;2.20;83.61
21960;BME280;11144;43.030;25.108;2023-12-14T07:04:13;98382.69;;;2.21;83.61
21960;BME280;11144;43.030;25.108;2023-12-14T07:05:49;98383.53;;;2.22;83.36
21960;BME280;11144;43.030;25.108;2023-12-14T07:07:22;98394.03;;;2.20;83.27
21960;BME280;11144;43.030;25.108;2023-12-14T07:08:55;98387.56;;;2.24;83.43
21960;BME280;11144;43.030;25.108;2023-12-14T07:10:28;98397.09;;;2.24;83.52
21960;BME280;11144;43.030;25.108;2023-12-14T07:12:01;98395.03;;;2.28;83.69
21960;BME280;11144;43.030;25.108;2023-12-14T07:13:35;98393.78;;;2.32;83.61
21960;BME280;11144;43.030;25.108;2023-12-14T07:15:09;98395.09;;;2.36;83.21
21960;BME280;11144;43.030;25.108;2023-12-14T07:16:41;98391.22;;;2.40;83.52
21960;BME280;11144;43.030;25.108;2023-12-14T07:18:15;98385.59;;;2.44;83.32
21960;BME280;11144;43.030;25.108;2023-12-14T07:19:47;98385.44;;;2.46;83.36
21960;BME280;11144;43.030;25.108;2023-12-14T07:21:22;98421.53;;;2.47;82.93
21960;BME280;11144;43.030;25.108;2023-12-14T07:22:55;98416.47;;;2.46;83.02
21960;BME280;11144;43.030;25.108;2023-12-14T07:24:27;98404.22;;;2.48;83.52
21960;BME280;11144;43.030;25.108;2023-12-14T07:26:11;98424.34;;;2.62;83.25
21960;BME280;11144;43.030;25.108;2023-12-14T07:27:44;98438.59;;;2.66;83.18
21960;BME280;11144;43.030;25.108;2023-12-14T07:29:18;98421.34;;;2.74;83.36
21960;BME280;11144;43.030;25.108;2023-12-14T07:30:51;98418.28;;;2.79;83.08
21960;BME280;11144;43.030;25.108;2023-12-14T07:32:24;98426.13;;;2.87;83.37
21960;BME280;11144;43.030;25.108;2023-12-14T07:33:58;98435.19;;;2.91;82.76
21960;BME280;11144;43.030;25.108;2023-12-14T07:35:32;98424.38;;;2.95;82.49
21960;BME280;11144;43.030;25.108;2023-12-14T07:37:05;98429.28;;;3.07;82.88
21960;BME280;11144;43.030;25.108;2023-12-14T07:38:39;98423.31;;;3.14;82.75
21960;BME280;11144;43.030;25.108;2023-12-14T07:40:12;98410.69;;;3.19;82.60
21960;BME280;11144;43.030;25.108;2023-12-14T07:41:44;98438.97;;;3.46;82.32
21960;BME280;11144;43.030;25.108;2023-12-14T07:43:18;98430.56;;;3.52;82.22
21960;BME280;11144;43.030;25.108;2023-12-14T07:44:50;98422.94;;;3.59;82.83
21960;BME280;11144;43.030;25.108;2023-12-14T07:46:23;98422.81;;;3.68;82.91
21960;BME280;11144;43.030;25.108;2023-12-14T07:47:56;98432.88;;;3.71;81.98
21960;BME280;11144;43.030;25.108;2023-12-14T07:49:30;98434.19;;;3.84;81.85
21960;BME280;11144;43.030;25.108;2023-12-14T07:51:02;98435.81;;;3.93;82.16
21960;BME280;11144;43.030;25.108;2023-12-14T07:52:37;98436.13;;;3.90;81.53
21960;BME280;11144;43.030;25.108;2023-12-14T07:54:10;98455.59;;;3.94;81.97
21960;BME280;11144;43.030;25.108;2023-12-14T07:55:43;98465.63;;;3.89;82.46
21960;BME280;11144;43.030;25.108;2023-12-14T07:57:15;98463.03;;;3.89;81.67
21960;BME280;11144;43.030;25.108;2023-12-14T07:58:49;98458.50;;;3.83;82.11
21960;BME280;11144;43.030;25.108;2023-12-14T08:00:21;98461.88;;;3.75;82.04
21960;BME280;11144;43.030;25.108;2023-12-14T08:01:55;98463.63;;;3.74;82.33
21960;BME280;11144;43.030;25.108;2023-12-14T08:03:27;98466.88;;;3.77;81.92
21960;BME280;11144;43.030;25.108;2023-12-14T08:05:00;98462.53;;;3.77;81.92
21960;BME280;11144;43.030;25.108;2023-12-14T08:06:33;98473.72;;;3.86;81.60
21960;BME280;11144;43.030;25.108;2023-12-14T08:08:07;98465.63;;;3.89;81.97
21960;BME280;11144;43.030;25.108;2023-12-14T08:09:40;98470.50;;;4.00;81.97
21960;BME280;11144;43.030;25.108;2023-12-14T08:11:13;98482.47;;;4.01;81.61
21960;BME280;11144;43.030;25.108;2023-12-14T08:12:46;98489.00;;;4.05;81.89
21960;BME280;11144;43.030;25.108;2023-12-14T08:14:20;98480.56;;;4.11;81.88
21960;BME280;11144;43.030;25.108;2023-12-14T08:15:53;98489.00;;;4.13;81.95